Time;durP1;ratioP1;P1;durP2;ratioP2;P2;SDS_P1;SDS_P2;PMS_P1;PMS_P2;Temp;Humidity;BMP_temperature;BMP_pressure;BME280_temperature;BME280_humidity;BME280_pressure;Samples;Min_cycle;Max_cycle;Signal;HPM_P1;HPM_P2
2021/07/05 14:50:55;;;;;;;2.40;1.48;;;21.40;75.00;;;;;;5117771;27;20115;-72
2021/07/05 14:53:21;;;;;;;2.58;1.40;;;21.50;75.50;;;;;;5103381;28;20076;-63
2021/07/05 14:55:47;;;;;;;3.53;1.30;;;21.40;75.30;;;;;;5104117;28;20024;-59
2021/07/05 14:58:13;;;;;;;1.95;1.40;;;21.50;74.80;;;;;;5101924;28;20375;-61
2021/07/05 15:12:59;;;;;;;2.60;1.30;;;21.50;73.40;;;;;;5127124;27;20146;-58
2021/07/05 15:15:25;;;;;;;3.40;1.58;;;21.50;74.30;;;;;;5135011;27;20540;-63
2021/07/05 15:17:51;;;;;;;4.20;1.45;;;21.50;74.00;;;;;;5135112;28;20474;-63
2021/07/05 15:20:23;;;;;;;2.53;1.52;;;21.50;74.10;;;;;;5133578;28;20058;-63
2021/07/05 15:22:49;;;;;;;2.85;1.50;;;21.40;74.00;;;;;;5125980;28;20023;-63
2021/07/05 15:25:14;;;;;;;2.40;1.48;;;21.50;74.00;;;;;;5124159;28;20099;-63
2021/07/05 15:27:40;;;;;;;1.45;1.20;;;21.50;73.80;;;;;;5124547;27;20023;-63
2021/07/05 15:30:07;;;;;;;2.65;1.48;;;21.50;73.70;;;;;;5125311;28;20016;-63
2021/07/05 15:32:32;;;;;;;3.20;1.50;;;21.50;73.80;;;;;;5125771;27;20030;-63
2021/07/05 15:34:58;;;;;;;1.65;1.40;;;21.50;73.80;;;;;;5124844;27;20019;-63
2021/07/05 15:37:24;;;;;;;2.58;1.63;;;21.50;73.50;;;;;;5123621;28;20023;-63
2021/07/05 15:39:49;;;;;;;2.25;1.55;;;21.50;73.60;;;;;;5125471;28;20015;-62
2021/07/05 15:42:15;;;;;;;2.72;1.70;;;21.50;73.70;;;;;;5123777;28;20107;-63
2021/07/05 15:44:41;;;;;;;1.65;1.50;;;21.50;73.50;;;;;;5124018;27;20497;-63
2021/07/05 15:47:08;;;;;;;2.35;1.40;;;21.50;73.50;;;;;;5125406;28;21465;-63
2021/07/05 15:49:33;;;;;;;1.65;1.45;;;21.50;73.50;;;;;;5123509;28;20020;-63
2021/07/05 15:51:59;;;;;;;3.00;1.60;;;21.50;73.40;;;;;;5124136;27;20072;-63
2021/07/05 15:54:25;;;;;;;2.85;1.33;;;21.50;73.40;;;;;;5123802;28;20049;-62
2021/07/05 15:56:50;;;;;;;2.72;1.58;;;21.50;73.50;;;;;;5123058;27;20122;-62
2021/07/05 15:59:16;;;;;;;3.17;1.60;;;21.50;73.50;;;;;;5124787;27;20020;-63
2021/07/05 16:01:41;;;;;;;2.67;1.48;;;21.50;73.50;;;;;;5123716;27;20102;-62
2021/07/05 16:04:07;;;;;;;1.67;1.58;;;21.50;73.60;;;;;;5097313;27;20067;-58
2021/07/05 16:06:33;;;;;;;2.60;1.27;;;21.50;73.30;;;;;;5067465;28;20044;-55
2021/07/05 16:08:58;;;;;;;2.17;1.42;;;21.50;73.20;;;;;;5054642;28;58366;-54
2021/07/05 16:11:24;;;;;;;3.70;1.65;;;21.60;73.10;;;;;;5061594;28;20041;-62
2021/07/05 16:13:50;;;;;;;2.35;1.60;;;21.60;73.20;;;;;;5059525;28;20048;-46
2021/07/05 16:16:15;;;;;;;1.70;1.50;;;24.60;99.90;;;;;;5050276;28;20041;-52
2021/07/05 16:18:41;;;;;;;2.70;1.30;;;24.10;70.30;;;;;;5056751;28;20041;-42
2021/07/05 16:21:07;;;;;;;3.40;1.60;;;24.00;68.80;;;;;;5094882;28;20059;-52
2021/07/05 16:23:33;;;;;;;4.07;1.52;;;23.30;70.70;;;;;;5052790;28;20025;-56
2021/07/05 16:25:59;;;;;;;2.67;1.67;;;23.00;72.20;;;;;;5068012;28;20416;-55
2021/07/05 16:28:24;;;;;;;2.17;1.50;;;22.80;72.30;;;;;;5066522;28;20045;-52
2021/07/05 16:30:53;;;;;;;3.42;1.50;;;22.70;72.60;;;;;;5062883;28;20128;-56
2021/07/05 16:33:19;;;;;;;2.35;1.50;;;22.50;73.60;;;;;;5062435;28;20041;-60
2021/07/05 16:35:44;;;;;;;2.17;1.50;;;22.40;73.30;;;;;;5064825;28;20036;-61
2021/07/05 16:38:10;;;;;;;3.50;1.30;;;22.20;73.80;;;;;;5061207;28;20393;-60
2021/07/05 16:40:36;;;;;;;3.08;1.40;;;22.20;73.80;;;;;;5058890;28;20023;-60
2021/07/05 16:43:02;;;;;;;2.67;1.67;;;22.20;73.90;;;;;;5059339;28;20032;-52
2021/07/05 16:45:27;;;;;;;13.52;2.05;;;22.20;74.40;;;;;;5060489;28;20084;-46
2021/07/05 16:47:54;;;;;;;3.05;1.55;;;22.10;74.40;;;;;;5060645;28;20033;-43
2021/07/05 16:50:21;;;;;;;2.17;1.75;;;21.40;77.50;;;;;;5060359;28;20025;-43
2021/07/05 16:52:48;;;;;;;4.72;1.88;;;21.20;78.80;;;;;;5059504;28;20036;-41
2021/07/05 16:55:16;;;;;;;2.10;1.70;;;21.10;80.00;;;;;;5058930;28;20175;-45
2021/07/05 16:57:42;;;;;;;3.63;2.00;;;21.00;80.30;;;;;;5064338;28;20085;-47
2021/07/05 17:00:12;;;;;;;3.10;1.83;;;21.00;80.40;;;;;;5063708;28;20021;-43
2021/07/05 17:02:47;;;;;;;2.75;2.30;;;20.90;81.30;;;;;;5061352;28;20017;-40
2021/07/05 17:05:16;;;;;;;3.00;1.90;;;20.90;81.80;;;;;;5063233;28;20488;-41
2021/07/05 17:07:42;;;;;;;4.57;1.80;;;20.80;82.20;;;;;;5073353;28;20111;-43
2021/07/05 17:10:08;;;;;;;3.65;1.70;;;20.80;82.00;;;;;;5062932;28;20048;-41
2021/07/05 17:12:34;;;;;;;2.97;2.00;;;20.80;82.40;;;;;;5075299;28;20044;-44
2021/07/05 17:14:59;;;;;;;6.00;2.13;;;20.80;82.50;;;;;;5072743;28;20492;-45
2021/07/05 17:17:25;;;;;;;3.88;1.90;;;20.80;82.50;;;;;;5073850;28;20147;-42
2021/07/05 17:19:51;;;;;;;3.20;1.80;;;20.80;82.80;;;;;;5074383;28;20142;-46
2021/07/05 17:22:18;;;;;;;4.53;2.40;;;20.80;83.00;;;;;;5078993;28;20392;-44
2021/07/05 17:24:44;;;;;;;3.10;2.08;;;20.80;83.10;;;;;;5078891;28;20055;-48
2021/07/05 17:27:09;;;;;;;3.53;2.25;;;20.80;83.30;;;;;;5078853;28;20082;-43
2021/07/05 17:29:36;;;;;;;4.22;2.20;;;20.80;83.20;;;;;;5078401;28;20516;-47
2021/07/05 17:32:02;;;;;;;3.05;1.85;;;20.80;83.30;;;;;;5078161;28;20035;-44
2021/07/05 17:34:28;;;;;;;3.08;2.30;;;20.80;83.30;;;;;;5072232;28;20021;-43
2021/07/05 17:36:53;;;;;;;4.22;2.00;;;20.80;83.30;;;;;;5073028;28;20112;-43
2021/07/05 17:39:19;;;;;;;3.38;2.08;;;20.80;83.30;;;;;;5078382;28;20025;-43
2021/07/05 17:41:45;;;;;;;5.20;2.10;;;20.80;83.30;;;;;;5075350;28;20384;-45
2021/07/05 17:44:11;;;;;;;2.35;1.80;;;20.80;83.20;;;;;;5094174;28;20016;-44
2021/07/05 17:46:36;;;;;;;2.25;1.90;;;20.80;83.10;;;;;;5078011;28;20029;-42
2021/07/05 17:49:02;;;;;;;3.80;2.00;;;20.80;82.80;;;;;;5077986;28;20031;-45
2021/07/05 17:51:28;;;;;;;3.85;1.90;;;20.90;82.70;;;;;;5078117;28;20078;-42
2021/07/05 17:53:54;;;;;;;3.50;1.65;;;20.80;82.50;;;;;;5078101;28;20016;-42
2021/07/05 17:56:19;;;;;;;2.65;1.92;;;20.80;82.40;;;;;;5078007;28;20025;-43
2021/07/05 17:58:45;;;;;;;3.42;2.13;;;20.80;82.40;;;;;;5070615;28;20056;-42
2021/07/05 18:03:44;;;;;;;4.85;2.25;;;20.90;81.70;;;;;;5058796;27;20510;-60
2021/07/05 18:06:10;;;;;;;3.25;1.88;;;20.60;84.00;;;;;;5054404;28;20104;-60
2021/07/05 18:08:42;;;;;;;3.38;2.10;;;20.50;84.70;;;;;;5053987;28;20075;-60
2021/07/05 18:11:08;;;;;;;4.35;1.90;;;20.50;85.70;;;;;;5054379;28;20117;-58
2021/07/05 18:13:37;;;;;;;3.42;2.00;;;20.40;86.00;;;;;;5054242;28;20065;-57
2021/07/05 18:16:04;;;;;;;4.10;2.22;;;20.40;86.10;;;;;;5054062;28;20025;-57
2021/07/05 18:18:30;;;;;;;3.20;2.03;;;20.40;86.00;;;;;;5054164;28;20090;-58
2021/07/05 18:20:56;;;;;;;3.72;2.17;;;20.40;86.10;;;;;;5054032;28;20025;-57
2021/07/05 18:23:22;;;;;;;3.17;2.00;;;20.40;87.40;;;;;;5053745;28;20123;-57
2021/07/05 18:25:50;;;;;;;4.30;2.20;;;20.40;86.50;;;;;;5053101;28;20025;-58
2021/07/05 18:28:16;;;;;;;3.88;2.20;;;20.40;86.60;;;;;;5053314;28;20029;-58
2021/07/05 18:30:42;;;;;;;2.35;2.13;;;20.40;86.20;;;;;;5053448;28;20036;-58
2021/07/05 18:33:08;;;;;;;3.88;2.10;;;20.40;86.00;;;;;;5040215;28;20052;-60
2021/07/05 18:35:33;;;;;;;3.13;2.13;;;20.40;85.80;;;;;;5031490;28;20094;-61
2021/07/05 18:37:59;;;;;;;4.13;2.22;;;20.40;85.90;;;;;;5039074;28;20155;-58
